sensor_id;sensor_type;location;lat;lon;timestamp;P1;durP1;ratioP1;P2;durP2;ratioP2
6985;SDS011;3533;51.246;6.850;2022-12-07T00:02:17;2.13;;;2.03;;
6985;SDS011;3533;51.246;6.850;2022-12-07T00:04:42;2.20;;;2.10;;
6985;SDS011;3533;51.246;6.850;2022-12-07T00:07:08;2.10;;;2.00;;
6985;SDS011;3533;51.246;6.850;2022-12-07T00:09:33;1.90;;;1.80;;
6985;SDS011;3533;51.246;6.850;2022-12-07T00:11:59;1.77;;;1.67;;
6985;SDS011;3533;51.246;6.850;2022-12-07T00:14:25;2.27;;;2.07;;
6985;SDS011;3533;51.246;6.850;2022-12-07T00:16:51;2.40;;;2.20;;
6985;SDS011;3533;51.246;6.850;2022-12-07T00:19:17;2.30;;;2.20;;
6985;SDS011;3533;51.246;6.850;2022-12-07T00:21:43;1.93;;;1.83;;
6985;SDS011;3533;51.246;6.850;2022-12-07T00:24:09;2.60;;;2.40;;
6985;SDS011;3533;51.246;6.850;2022-12-07T00:26:36;1.97;;;1.87;;
6985;SDS011;3533;51.246;6.850;2022-12-07T00:29:04;2.50;;;2.40;;
6985;SDS011;3533;51.246;6.850;2022-12-07T00:31:32;2.33;;;2.13;;
6985;SDS011;3533;51.246;6.850;2022-12-07T00:34:00;2.20;;;2.10;;
6985;SDS011;3533;51.246;6.850;2022-12-07T00:36:26;2.23;;;2.03;;
6985;SDS011;3533;51.246;6.850;2022-12-07T00:38:52;2.10;;;2.00;;
6985;SDS011;3533;51.246;6.850;2022-12-07T00:41:22;2.03;;;1.93;;
6985;SDS011;3533;51.246;6.850;2022-12-07T00:43:50;2.30;;;2.20;;
6985;SDS011;3533;51.246;6.850;2022-12-07T00:46:16;2.33;;;2.13;;
6985;SDS011;3533;51.246;6.850;2022-12-07T00:48:43;2.10;;;2.00;;
6985;SDS011;3533;51.246;6.850;2022-12-07T00:51:12;2.00;;;1.90;;
6985;SDS011;3533;51.246;6.850;2022-12-07T00:53:39;2.13;;;2.03;;
6985;SDS011;3533;51.246;6.850;2022-12-07T00:56:06;2.00;;;1.90;;
6985;SDS011;3533;51.246;6.850;2022-12-07T00:58:39;2.10;;;2.00;;
6985;SDS011;3533;51.246;6.850;2022-12-07T01:01:07;2.20;;;2.10;;
6985;SDS011;3533;51.246;6.850;2022-12-07T01:03:33;2.27;;;2.17;;
6985;SDS011;3533;51.246;6.850;2022-12-07T01:05:59;2.27;;;2.17;;
6985;SDS011;3533;51.246;6.850;2022-12-07T01:08:25;2.40;;;2.20;;
6985;SDS011;3533;51.246;6.850;2022-12-07T01:10:59;2.30;;;2.20;;
6985;SDS011;3533;51.246;6.850;2022-12-07T01:13:26;2.03;;;1.93;;
6985;SDS011;3533;51.246;6.850;2022-12-07T01:15:55;1.83;;;1.73;;
6985;SDS011;3533;51.246;6.850;2022-12-07T01:18:23;2.30;;;2.20;;
6985;SDS011;3533;51.246;6.850;2022-12-07T01:21:02;2.33;;;1.77;;
6985;SDS011;3533;51.246;6.850;2022-12-07T01:23:36;2.23;;;2.13;;
6985;SDS011;3533;51.246;6.850;2022-12-07T01:26:03;2.07;;;1.97;;
6985;SDS011;3533;51.246;6.850;2022-12-07T01:28:30;2.57;;;2.37;;
6985;SDS011;3533;51.246;6.850;2022-12-07T01:31:01;2.20;;;2.10;;
6985;SDS011;3533;51.246;6.850;2022-12-07T01:33:32;2.43;;;2.33;;
6985;SDS011;3533;51.246;6.850;2022-12-07T01:36:00;2.00;;;1.90;;
6985;SDS011;3533;51.246;6.850;2022-12-07T01:38:30;1.80;;;1.70;;
6985;SDS011;3533;51.246;6.850;2022-12-07T01:40:57;1.90;;;1.80;;
6985;SDS011;3533;51.246;6.850;2022-12-07T01:43:24;2.60;;;2.40;;
6985;SDS011;3533;51.246;6.850;2022-12-07T01:45:52;1.97;;;1.87;;
6985;SDS011;3533;51.246;6.850;2022-12-07T01:48:18;2.13;;;2.03;;
6985;SDS011;3533;51.246;6.850;2022-12-07T01:50:48;2.13;;;2.03;;
6985;SDS011;3533;51.246;6.850;2022-12-07T01:53:16;2.37;;;2.20;;
6985;SDS011;3533;51.246;6.850;2022-12-07T01:55:43;2.10;;;2.00;;
6985;SDS011;3533;51.246;6.850;2022-12-07T01:58:11;1.93;;;1.83;;
6985;SDS011;3533;51.246;6.850;2022-12-07T02:00:38;2.23;;;2.13;;
6985;SDS011;3533;51.246;6.850;2022-12-07T02:03:08;2.30;;;2.13;;
6985;SDS011;3533;51.246;6.850;2022-12-07T02:05:54;2.10;;;1.90;;
6985;SDS011;3533;51.246;6.850;2022-12-07T02:08:20;2.13;;;2.03;;
6985;SDS011;3533;51.246;6.850;2022-12-07T02:10:46;2.00;;;1.90;;
6985;SDS011;3533;51.246;6.850;2022-12-07T02:15:44;1.90;;;1.80;;
6985;SDS011;3533;51.246;6.850;2022-12-07T02:18:18;2.00;;;1.90;;
6985;SDS011;3533;51.246;6.850;2022-12-07T02:21:16;2.60;;;2.40;;
6985;SDS011;3533;51.246;6.850;2022-12-07T02:24:05;1.97;;;1.87;;
6985;SDS011;3533;51.246;6.850;2022-12-07T02:29:39;1.90;;;1.80;;
6985;SDS011;3533;51.246;6.850;2022-12-07T02:32:35;2.00;;;1.90;;
6985;SDS011;3533;51.246;6.850;2022-12-07T02:35:06;1.90;;;1.80;;
6985;SDS011;3533;51.246;6.850;2022-12-07T02:37:43;1.80;;;1.70;;
6985;SDS011;3533;51.246;6.850;2022-12-07T02:40:33;1.93;;;1.83;;
6985;SDS011;3533;51.246;6.850;2022-12-07T02:43:06;2.00;;;1.90;;
6985;SDS011;3533;51.246;6.850;2022-12-07T02:45:39;2.10;;;2.00;;
6985;SDS011;3533;51.246;6.850;2022-12-07T02:48:06;2.07;;;1.97;;
6985;SDS011;3533;51.246;6.850;2022-12-07T02:50:34;2.17;;;2.07;;
6985;SDS011;3533;51.246;6.850;2022-12-07T02:53:00;2.00;;;1.90;;
6985;SDS011;3533;51.246;6.850;2022-12-07T02:55:28;2.43;;;2.33;;
6985;SDS011;3533;51.246;6.850;2022-12-07T03:00:41;1.90;;;1.80;;
6985;SDS011;3533;51.246;6.850;2022-12-07T03:03:17;1.97;;;1.87;;
6985;SDS011;3533;51.246;6.850;2022-12-07T03:06:26;2.13;;;2.03;;
6985;SDS011;3533;51.246;6.850;2022-12-07T03:12:08;2.23;;;2.03;;
6985;SDS011;3533;51.246;6.850;2022-12-07T03:14:41;2.07;;;1.97;;
6985;SDS011;3533;51.246;6.850;2022-12-07T03:17:14;1.80;;;1.70;;
6985;SDS011;3533;51.246;6.850;2022-12-07T03:19:44;2.00;;;1.90;;
6985;SDS011;3533;51.246;6.850;2022-12-07T03:22:12;2.10;;;2.00;;
6985;SDS011;3533;51.246;6.850;2022-12-07T03:24:39;2.00;;;1.90;;
6985;SDS011;3533;51.246;6.850;2022-12-07T03:27:08;1.90;;;1.80;;
6985;SDS011;3533;51.246;6.850;2022-12-07T03:29:39;1.90;;;1.80;;
6985;SDS011;3533;51.246;6.850;2022-12-07T03:32:16;1.80;;;1.70;;
6985;SDS011;3533;51.246;6.850;2022-12-07T03:37:30;2.00;;;1.90;;
6985;SDS011;3533;51.246;6.850;2022-12-07T03:40:21;2.20;;;2.10;;
6985;SDS011;3533;51.246;6.850;2022-12-07T03:42:51;1.83;;;1.73;;
6985;SDS011;3533;51.246;6.850;2022-12-07T03:45:17;1.80;;;1.70;;
6985;SDS011;3533;51.246;6.850;2022-12-07T03:47:55;1.70;;;1.60;;
6985;SDS011;3533;51.246;6.850;2022-12-07T03:53:35;1.97;;;1.87;;
6985;SDS011;3533;51.246;6.850;2022-12-07T03:56:05;2.20;;;2.10;;
6985;SDS011;3533;51.246;6.850;2022-12-07T03:58:32;2.23;;;2.13;;
6985;SDS011;3533;51.246;6.850;2022-12-07T04:00:59;1.70;;;1.60;;
6985;SDS011;3533;51.246;6.850;2022-12-07T04:03:25;2.10;;;2.00;;
6985;SDS011;3533;51.246;6.850;2022-12-07T04:05:51;1.77;;;1.67;;
6985;SDS011;3533;51.246;6.850;2022-12-07T04:08:17;1.80;;;1.70;;
6985;SDS011;3533;51.246;6.850;2022-12-07T04:10:42;1.80;;;1.70;;
6985;SDS011;3533;51.246;6.850;2022-12-07T04:13:08;2.00;;;1.90;;
6985;SDS011;3533;51.246;6.850;2022-12-07T04:15:33;1.80;;;1.70;;
6985;SDS011;3533;51.246;6.850;2022-12-07T04:17:59;2.10;;;2.00;;
6985;SDS011;3533;51.246;6.850;2022-12-07T04:20:24;1.77;;;1.67;;
6985;SDS011;3533;51.246;6.850;2022-12-07T04:22:50;1.80;;;1.70;;
6985;SDS011;3533;51.246;6.850;2022-12-07T04:25:16;1.60;;;1.50;;
6985;SDS011;3533;51.246;6.850;2022-12-07T04:27:41;1.83;;;1.73;;
6985;SDS011;3533;51.246;6.850;2022-12-07T04:30:07;1.67;;;1.57;;
6985;SDS011;3533;51.246;6.850;2022-12-07T04:32:33;1.53;;;1.43;;
6985;SDS011;3533;51.246;6.850;2022-12-07T04:34:59;2.00;;;1.90;;
6985;SDS011;3533;51.246;6.850;2022-12-07T04:37:24;1.80;;;1.70;;
6985;SDS011;3533;51.246;6.850;2022-12-07T04:39:50;1.80;;;1.70;;
6985;SDS011;3533;51.246;6.850;2022-12-07T04:42:15;1.73;;;1.63;;
6985;SDS011;3533;51.246;6.850;2022-12-07T04:44:41;1.97;;;1.87;;
6985;SDS011;3533;51.246;6.850;2022-12-07T04:47:06;1.83;;;1.73;;
6985;SDS011;3533;51.246;6.850;2022-12-07T04:49:32;1.90;;;1.80;;
6985;SDS011;3533;51.246;6.850;2022-12-07T04:51:57;2.00;;;1.90;;
6985;SDS011;3533;51.246;6.850;2022-12-07T04:54:23;1.67;;;1.57;;
6985;SDS011;3533;51.246;6.850;2022-12-07T04:56:49;1.90;;;1.80;;
6985;SDS011;3533;51.246;6.850;2022-12-07T04:59:15;1.83;;;1.73;;
6985;SDS011;3533;51.246;6.850;2022-12-07T05:01:41;1.60;;;1.50;;
6985;SDS011;3533;51.246;6.850;2022-12-07T05:04:07;1.80;;;1.70;;
6985;SDS011;3533;51.246;6.850;2022-12-07T05:06:33;1.57;;;1.47;;
6985;SDS011;3533;51.246;6.850;2022-12-07T05:08:59;1.80;;;1.70;;
6985;SDS011;3533;51.246;6.850;2022-12-07T05:11:24;1.83;;;1.73;;
6985;SDS011;3533;51.246;6.850;2022-12-07T05:14:07;1.60;;;1.50;;
6985;SDS011;3533;51.246;6.850;2022-12-07T05:16:33;1.77;;;1.67;;
6985;SDS011;3533;51.246;6.850;2022-12-07T05:18:59;1.40;;;1.30;;
6985;SDS011;3533;51.246;6.850;2022-12-07T05:21:25;1.57;;;1.47;;
6985;SDS011;3533;51.246;6.850;2022-12-07T05:23:50;1.80;;;1.70;;
6985;SDS011;3533;51.246;6.850;2022-12-07T05:26:16;1.80;;;1.70;;
6985;SDS011;3533;51.246;6.850;2022-12-07T05:28:42;1.73;;;1.63;;
6985;SDS011;3533;51.246;6.850;2022-12-07T05:31:07;1.90;;;1.77;;
6985;SDS011;3533;51.246;6.850;2022-12-07T05:33:33;1.70;;;1.60;;
6985;SDS011;3533;51.246;6.850;2022-12-07T05:35:59;1.70;;;1.60;;
6985;SDS011;3533;51.246;6.850;2022-12-07T05:38:30;1.70;;;1.60;;
6985;SDS011;3533;51.246;6.850;2022-12-07T05:41:01;1.77;;;1.67;;
6985;SDS011;3533;51.246;6.850;2022-12-07T05:43:28;2.43;;;1.97;;
6985;SDS011;3533;51.246;6.850;2022-12-07T05:45:54;1.53;;;1.43;;
6985;SDS011;3533;51.246;6.850;2022-12-07T05:48:19;1.73;;;1.60;;
6985;SDS011;3533;51.246;6.850;2022-12-07T05:50:47;1.50;;;1.40;;
6985;SDS011;3533;51.246;6.850;2022-12-07T05:53:14;1.57;;;1.47;;
6985;SDS011;3533;51.246;6.850;2022-12-07T05:55:39;1.60;;;1.50;;
6985;SDS011;3533;51.246;6.850;2022-12-07T05:58:05;2.13;;;1.60;;
6985;SDS011;3533;51.246;6.850;2022-12-07T06:00:55;1.50;;;1.40;;
6985;SDS011;3533;51.246;6.850;2022-12-07T06:03:21;1.80;;;1.70;;
6985;SDS011;3533;51.246;6.850;2022-12-07T06:05:47;1.57;;;1.47;;
6985;SDS011;3533;51.246;6.850;2022-12-07T06:08:12;1.80;;;1.70;;
6985;SDS011;3533;51.246;6.850;2022-12-07T06:10:39;1.60;;;1.50;;
6985;SDS011;3533;51.246;6.850;2022-12-07T06:13:06;1.83;;;1.73;;
6985;SDS011;3533;51.246;6.850;2022-12-07T06:15:32;1.60;;;1.50;;
6985;SDS011;3533;51.246;6.850;2022-12-07T06:17:57;1.93;;;1.83;;
6985;SDS011;3533;51.246;6.850;2022-12-07T06:20:23;1.50;;;1.40;;
6985;SDS011;3533;51.246;6.850;2022-12-07T06:22:48;1.70;;;1.60;;
6985;SDS011;3533;51.246;6.850;2022-12-07T06:25:14;1.80;;;1.70;;
6985;SDS011;3533;51.246;6.850;2022-12-07T06:27:40;3.73;;;1.40;;
6985;SDS011;3533;51.246;6.850;2022-12-07T06:30:05;1.80;;;1.70;;
6985;SDS011;3533;51.246;6.850;2022-12-07T06:32:33;2.20;;;1.50;;
6985;SDS011;3533;51.246;6.850;2022-12-07T06:34:59;1.63;;;1.53;;
6985;SDS011;3533;51.246;6.850;2022-12-07T06:37:25;1.67;;;1.40;;
6985;SDS011;3533;51.246;6.850;2022-12-07T06:39:50;2.43;;;2.23;;
6985;SDS011;3533;51.246;6.850;2022-12-07T06:42:16;1.70;;;1.60;;
6985;SDS011;3533;51.246;6.850;2022-12-07T06:44:41;2.03;;;1.70;;
6985;SDS011;3533;51.246;6.850;2022-12-07T06:47:07;1.67;;;1.57;;
6985;SDS011;3533;51.246;6.850;2022-12-07T06:49:34;2.00;;;1.40;;
6985;SDS011;3533;51.246;6.850;2022-12-07T06:52:00;1.70;;;1.60;;
6985;SDS011;3533;51.246;6.850;2022-12-07T06:54:25;1.83;;;1.63;;
6985;SDS011;3533;51.246;6.850;2022-12-07T06:56:51;2.63;;;1.80;;
6985;SDS011;3533;51.246;6.850;2022-12-07T06:59:16;2.00;;;1.83;;
6985;SDS011;3533;51.246;6.850;2022-12-07T07:01:42;1.70;;;1.60;;
6985;SDS011;3533;51.246;6.850;2022-12-07T07:04:07;1.90;;;1.80;;
6985;SDS011;3533;51.246;6.850;2022-12-07T07:06:33;1.70;;;1.60;;
6985;SDS011;3533;51.246;6.850;2022-12-07T07:08:58;2.00;;;1.63;;
6985;SDS011;3533;51.246;6.850;2022-12-07T07:11:24;1.60;;;1.50;;
6985;SDS011;3533;51.246;6.850;2022-12-07T07:13:50;1.47;;;1.37;;
6985;SDS011;3533;51.246;6.850;2022-12-07T07:16:15;1.60;;;1.50;;
6985;SDS011;3533;51.246;6.850;2022-12-07T07:18:41;1.80;;;1.60;;
6985;SDS011;3533;51.246;6.850;2022-12-07T07:21:06;1.60;;;1.50;;
6985;SDS011;3533;51.246;6.850;2022-12-07T07:23:32;1.50;;;1.40;;
6985;SDS011;3533;51.246;6.850;2022-12-07T07:25:58;2.53;;;1.53;;
6985;SDS011;3533;51.246;6.850;2022-12-07T07:28:23;1.60;;;1.50;;
6985;SDS011;3533;51.246;6.850;2022-12-07T07:30:49;1.90;;;1.50;;
6985;SDS011;3533;51.246;6.850;2022-12-07T07:33:15;1.60;;;1.50;;
6985;SDS011;3533;51.246;6.850;2022-12-07T07:35:40;1.57;;;1.43;;
6985;SDS011;3533;51.246;6.850;2022-12-07T07:38:06;2.47;;;1.60;;
6985;SDS011;3533;51.246;6.850;2022-12-07T07:40:33;1.50;;;1.40;;
6985;SDS011;3533;51.246;6.850;2022-12-07T07:42:59;2.00;;;1.47;;
6985;SDS011;3533;51.246;6.850;2022-12-07T07:45:25;1.97;;;1.60;;
6985;SDS011;3533;51.246;6.850;2022-12-07T07:47:51;1.67;;;1.57;;
6985;SDS011;3533;51.246;6.850;2022-12-07T07:50:17;1.53;;;1.43;;
6985;SDS011;3533;51.246;6.850;2022-12-07T07:52:43;1.70;;;1.60;;
6985;SDS011;3533;51.246;6.850;2022-12-07T07:55:09;1.77;;;1.33;;
6985;SDS011;3533;51.246;6.850;2022-12-07T07:57:35;1.50;;;1.40;;
6985;SDS011;3533;51.246;6.850;2022-12-07T08:00:03;1.63;;;1.53;;
6985;SDS011;3533;51.246;6.850;2022-12-07T08:02:31;2.10;;;1.63;;
6985;SDS011;3533;51.246;6.850;2022-12-07T08:04:57;1.63;;;1.53;;
6985;SDS011;3533;51.246;6.850;2022-12-07T08:07:22;2.30;;;1.50;;
6985;SDS011;3533;51.246;6.850;2022-12-07T08:09:48;1.40;;;1.30;;
6985;SDS011;3533;51.246;6.850;2022-12-07T08:12:13;1.60;;;1.50;;
6985;SDS011;3533;51.246;6.850;2022-12-07T08:14:39;1.43;;;1.33;;
6985;SDS011;3533;51.246;6.850;2022-12-07T08:17:04;1.40;;;1.30;;
6985;SDS011;3533;51.246;6.850;2022-12-07T08:19:30;2.00;;;1.23;;
6985;SDS011;3533;51.246;6.850;2022-12-07T08:21:56;1.40;;;1.30;;
6985;SDS011;3533;51.246;6.850;2022-12-07T08:24:21;2.20;;;2.00;;
6985;SDS011;3533;51.246;6.850;2022-12-07T08:26:48;1.83;;;1.67;;
6985;SDS011;3533;51.246;6.850;2022-12-07T08:29:14;2.00;;;1.50;;
6985;SDS011;3533;51.246;6.850;2022-12-07T08:31:40;1.30;;;1.20;;
6985;SDS011;3533;51.246;6.850;2022-12-07T08:34:05;1.80;;;1.70;;
6985;SDS011;3533;51.246;6.850;2022-12-07T08:36:31;1.37;;;1.27;;
6985;SDS011;3533;51.246;6.850;2022-12-07T08:38:56;1.70;;;1.60;;
6985;SDS011;3533;51.246;6.850;2022-12-07T08:41:22;1.33;;;1.23;;
6985;SDS011;3533;51.246;6.850;2022-12-07T08:43:47;1.30;;;1.20;;
6985;SDS011;3533;51.246;6.850;2022-12-07T08:46:20;2.40;;;1.20;;
6985;SDS011;3533;51.246;6.850;2022-12-07T08:48:58;1.50;;;1.40;;
6985;SDS011;3533;51.246;6.850;2022-12-07T08:51:29;1.80;;;1.70;;
6985;SDS011;3533;51.246;6.850;2022-12-07T08:53:55;2.07;;;1.47;;
6985;SDS011;3533;51.246;6.850;2022-12-07T08:56:23;1.80;;;1.40;;
6985;SDS011;3533;51.246;6.850;2022-12-07T08:58:49;1.43;;;1.33;;
6985;SDS011;3533;51.246;6.850;2022-12-07T09:01:15;1.37;;;1.27;;
6985;SDS011;3533;51.246;6.850;2022-12-07T09:03:40;1.37;;;1.27;;
6985;SDS011;3533;51.246;6.850;2022-12-07T09:06:06;1.40;;;1.30;;
6985;SDS011;3533;51.246;6.850;2022-12-07T09:08:33;1.50;;;1.20;;
6985;SDS011;3533;51.246;6.850;2022-12-07T09:11:02;1.33;;;1.20;;
6985;SDS011;3533;51.246;6.850;2022-12-07T09:13:27;1.50;;;1.40;;
6985;SDS011;3533;51.246;6.850;2022-12-07T09:15:53;1.43;;;1.33;;
6985;SDS011;3533;51.246;6.850;2022-12-07T09:18:19;1.40;;;1.30;;
6985;SDS011;3533;51.246;6.850;2022-12-07T09:20:44;1.50;;;1.40;;
6985;SDS011;3533;51.246;6.850;2022-12-07T09:23:10;1.57;;;1.33;;
6985;SDS011;3533;51.246;6.850;2022-12-07T09:25:35;1.40;;;1.30;;
6985;SDS011;3533;51.246;6.850;2022-12-07T09:28:01;1.60;;;1.40;;
6985;SDS011;3533;51.246;6.850;2022-12-07T09:30:27;1.30;;;1.20;;
6985;SDS011;3533;51.246;6.850;2022-12-07T09:32:53;1.40;;;1.30;;
6985;SDS011;3533;51.246;6.850;2022-12-07T09:35:20;1.40;;;1.30;;
6985;SDS011;3533;51.246;6.850;2022-12-07T09:37:46;1.53;;;1.43;;
6985;SDS011;3533;51.246;6.850;2022-12-07T09:40:12;1.67;;;1.57;;
6985;SDS011;3533;51.246;6.850;2022-12-07T09:42:41;1.30;;;1.20;;
6985;SDS011;3533;51.246;6.850;2022-12-07T09:45:19;1.80;;;1.40;;
6985;SDS011;3533;51.246;6.850;2022-12-07T09:47:52;2.20;;;1.00;;
6985;SDS011;3533;51.246;6.850;2022-12-07T09:50:21;1.57;;;1.47;;
6985;SDS011;3533;51.246;6.850;2022-12-07T09:52:50;1.60;;;1.50;;
6985;SDS011;3533;51.246;6.850;2022-12-07T09:55:19;1.70;;;1.40;;
6985;SDS011;3533;51.246;6.850;2022-12-07T09:57:49;1.50;;;1.40;;
6985;SDS011;3533;51.246;6.850;2022-12-07T10:00:17;1.50;;;1.40;;
6985;SDS011;3533;51.246;6.850;2022-12-07T10:02:47;1.20;;;1.10;;
6985;SDS011;3533;51.246;6.850;2022-12-07T10:05:55;1.40;;;1.30;;
6985;SDS011;3533;51.246;6.850;2022-12-07T10:08:15;1.63;;;1.53;;
6985;SDS011;3533;51.246;6.850;2022-12-07T10:10:42;1.10;;;1.00;;
6985;SDS011;3533;51.246;6.850;2022-12-07T10:13:13;1.70;;;1.27;;
6985;SDS011;3533;51.246;6.850;2022-12-07T10:15:50;1.73;;;1.50;;
6985;SDS011;3533;51.246;6.850;2022-12-07T10:20:45;2.10;;;1.40;;
6985;SDS011;3533;51.246;6.850;2022-12-07T10:23:15;1.60;;;1.40;;
6985;SDS011;3533;51.246;6.850;2022-12-07T10:25:42;1.87;;;1.40;;
6985;SDS011;3533;51.246;6.850;2022-12-07T10:28:16;1.83;;;1.40;;
6985;SDS011;3533;51.246;6.850;2022-12-07T10:31:01;1.83;;;1.30;;
6985;SDS011;3533;51.246;6.850;2022-12-07T10:36:37;1.40;;;1.30;;
6985;SDS011;3533;51.246;6.850;2022-12-07T10:39:10;1.30;;;1.20;;
6985;SDS011;3533;51.246;6.850;2022-12-07T10:44:21;1.30;;;1.20;;
6985;SDS011;3533;51.246;6.850;2022-12-07T10:47:09;1.30;;;1.20;;
6985;SDS011;3533;51.246;6.850;2022-12-07T11:00:30;1.60;;;1.50;;
6985;SDS011;3533;51.246;6.850;2022-12-07T11:06:14;1.50;;;1.40;;
6985;SDS011;3533;51.246;6.850;2022-12-07T11:23:17;1.47;;;1.27;;
6985;SDS011;3533;51.246;6.850;2022-12-07T11:25:53;1.40;;;1.30;;
6985;SDS011;3533;51.246;6.850;2022-12-07T11:28:30;1.57;;;1.47;;
6985;SDS011;3533;51.246;6.850;2022-12-07T11:31:12;1.40;;;1.30;;
6985;SDS011;3533;51.246;6.850;2022-12-07T11:33:53;1.23;;;1.13;;
6985;SDS011;3533;51.246;6.850;2022-12-07T11:39:00;1.83;;;1.50;;
6985;SDS011;3533;51.246;6.850;2022-12-07T11:41:30;1.17;;;1.07;;
6985;SDS011;3533;51.246;6.850;2022-12-07T11:46:51;1.10;;;1.00;;
6985;SDS011;3533;51.246;6.850;2022-12-07T11:49:26;1.40;;;1.30;;
6985;SDS011;3533;51.246;6.850;2022-12-07T11:52:02;1.30;;;1.20;;
6985;SDS011;3533;51.246;6.850;2022-12-07T11:54:32;1.23;;;1.13;;
6985;SDS011;3533;51.246;6.850;2022-12-07T11:57:04;1.20;;;1.10;;
6985;SDS011;3533;51.246;6.850;2022-12-07T11:59:43;1.27;;;1.17;;
6985;SDS011;3533;51.246;6.850;2022-12-07T12:02:19;1.40;;;1.30;;
6985;SDS011;3533;51.246;6.850;2022-12-07T12:07:30;1.87;;;1.77;;
6985;SDS011;3533;51.246;6.850;2022-12-07T12:10:02;1.40;;;1.30;;
6985;SDS011;3533;51.246;6.850;2022-12-07T12:15:08;1.60;;;1.50;;
6985;SDS011;3533;51.246;6.850;2022-12-07T12:18:02;1.30;;;1.20;;
6985;SDS011;3533;51.246;6.850;2022-12-07T12:20:40;1.30;;;1.20;;
6985;SDS011;3533;51.246;6.850;2022-12-07T12:23:17;1.10;;;1.00;;
6985;SDS011;3533;51.246;6.850;2022-12-07T12:25:47;1.30;;;1.20;;
6985;SDS011;3533;51.246;6.850;2022-12-07T12:28:36;1.30;;;1.20;;
6985;SDS011;3533;51.246;6.850;2022-12-07T12:31:09;1.30;;;1.20;;
6985;SDS011;3533;51.246;6.850;2022-12-07T12:33:46;1.30;;;1.20;;
6985;SDS011;3533;51.246;6.850;2022-12-07T12:52:45;1.37;;;1.27;;
6985;SDS011;3533;51.246;6.850;2022-12-07T12:57:35;3.70;;;1.20;;
6985;SDS011;3533;51.246;6.850;2022-12-07T13:00:14;1.20;;;1.10;;
6985;SDS011;3533;51.246;6.850;2022-12-07T13:15:39;1.20;;;1.10;;
6985;SDS011;3533;51.246;6.850;2022-12-07T13:20:57;1.23;;;1.13;;
6985;SDS011;3533;51.246;6.850;2022-12-07T13:26:13;1.17;;;1.07;;
6985;SDS011;3533;51.246;6.850;2022-12-07T13:29:05;1.37;;;1.27;;
6985;SDS011;3533;51.246;6.850;2022-12-07T13:31:45;1.50;;;1.40;;
6985;SDS011;3533;51.246;6.850;2022-12-07T13:34:35;1.20;;;1.10;;
6985;SDS011;3533;51.246;6.850;2022-12-07T13:37:08;1.20;;;1.10;;
6985;SDS011;3533;51.246;6.850;2022-12-07T13:39:58;1.97;;;1.20;;
6985;SDS011;3533;51.246;6.850;2022-12-07T13:42:29;1.97;;;1.10;;
6985;SDS011;3533;51.246;6.850;2022-12-07T13:44:57;1.10;;;1.00;;
6985;SDS011;3533;51.246;6.850;2022-12-07T13:47:36;1.10;;;1.00;;
6985;SDS011;3533;51.246;6.850;2022-12-07T13:50:25;1.30;;;1.20;;
6985;SDS011;3533;51.246;6.850;2022-12-07T13:52:56;1.17;;;1.07;;
6985;SDS011;3533;51.246;6.850;2022-12-07T13:55:23;1.60;;;1.20;;
6985;SDS011;3533;51.246;6.850;2022-12-07T13:57:49;1.30;;;1.20;;
6985;SDS011;3533;51.246;6.850;2022-12-07T14:00:18;1.20;;;1.10;;
6985;SDS011;3533;51.246;6.850;2022-12-07T14:02:58;1.30;;;1.20;;
6985;SDS011;3533;51.246;6.850;2022-12-07T14:05:26;1.00;;;1.00;;
6985;SDS011;3533;51.246;6.850;2022-12-07T14:08:04;1.10;;;1.00;;
6985;SDS011;3533;51.246;6.850;2022-12-07T14:10:36;1.20;;;1.10;;
6985;SDS011;3533;51.246;6.850;2022-12-07T14:16:00;1.17;;;1.07;;
6985;SDS011;3533;51.246;6.850;2022-12-07T14:18:36;1.00;;;0.90;;
6985;SDS011;3533;51.246;6.850;2022-12-07T14:23:36;1.20;;;1.10;;
6985;SDS011;3533;51.246;6.850;2022-12-07T14:26:21;1.13;;;1.03;;
6985;SDS011;3533;51.246;6.850;2022-12-07T14:28:47;2.90;;;1.30;;
6985;SDS011;3533;51.246;6.850;2022-12-07T14:31:21;1.50;;;1.40;;
6985;SDS011;3533;51.246;6.850;2022-12-07T14:33:49;1.00;;;0.90;;
6985;SDS011;3533;51.246;6.850;2022-12-07T14:36:14;1.50;;;1.40;;
6985;SDS011;3533;51.246;6.850;2022-12-07T14:38:40;1.40;;;1.13;;
6985;SDS011;3533;51.246;6.850;2022-12-07T14:41:06;2.13;;;1.50;;
6985;SDS011;3533;51.246;6.850;2022-12-07T14:43:58;1.43;;;1.33;;
6985;SDS011;3533;51.246;6.850;2022-12-07T14:46:24;1.43;;;1.33;;
6985;SDS011;3533;51.246;6.850;2022-12-07T14:48:49;1.37;;;1.27;;
6985;SDS011;3533;51.246;6.850;2022-12-07T14:51:15;1.30;;;1.20;;
6985;SDS011;3533;51.246;6.850;2022-12-07T14:53:48;1.30;;;1.20;;
6985;SDS011;3533;51.246;6.850;2022-12-07T14:56:16;1.30;;;1.20;;
6985;SDS011;3533;51.246;6.850;2022-12-07T14:58:42;1.30;;;1.20;;
6985;SDS011;3533;51.246;6.850;2022-12-07T15:01:07;1.30;;;1.20;;
6985;SDS011;3533;51.246;6.850;2022-12-07T15:03:33;1.73;;;1.17;;
6985;SDS011;3533;51.246;6.850;2022-12-07T15:06:04;1.10;;;1.00;;
6985;SDS011;3533;51.246;6.850;2022-12-07T15:08:30;1.30;;;1.20;;
6985;SDS011;3533;51.246;6.850;2022-12-07T15:10:56;1.73;;;1.00;;
6985;SDS011;3533;51.246;6.850;2022-12-07T15:13:22;1.20;;;1.10;;
6985;SDS011;3533;51.246;6.850;2022-12-07T15:16:08;1.63;;;1.20;;
6985;SDS011;3533;51.246;6.850;2022-12-07T15:18:37;1.23;;;1.13;;
6985;SDS011;3533;51.246;6.850;2022-12-07T15:21:03;1.67;;;1.10;;
6985;SDS011;3533;51.246;6.850;2022-12-07T15:23:29;1.30;;;1.20;;
6985;SDS011;3533;51.246;6.850;2022-12-07T15:25:56;1.20;;;1.10;;
6985;SDS011;3533;51.246;6.850;2022-12-07T15:28:21;1.03;;;0.93;;
6985;SDS011;3533;51.246;6.850;2022-12-07T15:30:47;1.30;;;1.20;;
6985;SDS011;3533;51.246;6.850;2022-12-07T15:33:13;1.10;;;1.00;;
6985;SDS011;3533;51.246;6.850;2022-12-07T15:35:39;1.60;;;1.30;;
6985;SDS011;3533;51.246;6.850;2022-12-07T15:38:05;1.67;;;1.57;;
6985;SDS011;3533;51.246;6.850;2022-12-07T15:40:31;1.20;;;1.10;;
6985;SDS011;3533;51.246;6.850;2022-12-07T15:42:56;1.43;;;1.33;;
6985;SDS011;3533;51.246;6.850;2022-12-07T15:45:22;1.47;;;1.10;;
6985;SDS011;3533;51.246;6.850;2022-12-07T15:47:47;1.60;;;1.20;;
6985;SDS011;3533;51.246;6.850;2022-12-07T15:50:14;1.20;;;1.10;;
6985;SDS011;3533;51.246;6.850;2022-12-07T15:52:41;1.27;;;1.17;;
6985;SDS011;3533;51.246;6.850;2022-12-07T15:55:07;1.50;;;1.40;;
6985;SDS011;3533;51.246;6.850;2022-12-07T15:57:35;1.50;;;1.40;;
6985;SDS011;3533;51.246;6.850;2022-12-07T16:00:02;1.40;;;1.30;;
6985;SDS011;3533;51.246;6.850;2022-12-07T16:02:36;1.40;;;1.30;;
6985;SDS011;3533;51.246;6.850;2022-12-07T16:05:02;1.40;;;1.30;;
6985;SDS011;3533;51.246;6.850;2022-12-07T16:07:28;1.50;;;1.40;;
6985;SDS011;3533;51.246;6.850;2022-12-07T16:09:53;1.47;;;1.30;;
6985;SDS011;3533;51.246;6.850;2022-12-07T16:12:19;1.57;;;1.47;;
6985;SDS011;3533;51.246;6.850;2022-12-07T16:14:45;2.40;;;1.33;;
6985;SDS011;3533;51.246;6.850;2022-12-07T16:17:10;1.97;;;1.43;;
6985;SDS011;3533;51.246;6.850;2022-12-07T16:19:36;2.00;;;1.33;;
6985;SDS011;3533;51.246;6.850;2022-12-07T16:22:03;2.20;;;1.70;;
6985;SDS011;3533;51.246;6.850;2022-12-07T16:24:29;1.53;;;1.43;;
6985;SDS011;3533;51.246;6.850;2022-12-07T16:26:55;1.90;;;1.80;;
6985;SDS011;3533;51.246;6.850;2022-12-07T16:29:21;1.53;;;1.43;;
6985;SDS011;3533;51.246;6.850;2022-12-07T16:31:47;1.77;;;1.67;;
6985;SDS011;3533;51.246;6.850;2022-12-07T16:34:13;1.87;;;1.53;;
6985;SDS011;3533;51.246;6.850;2022-12-07T16:36:39;1.70;;;1.40;;
6985;SDS011;3533;51.246;6.850;2022-12-07T16:39:04;1.57;;;1.40;;
6985;SDS011;3533;51.246;6.850;2022-12-07T16:41:30;1.90;;;1.67;;
6985;SDS011;3533;51.246;6.850;2022-12-07T16:43:56;1.80;;;1.67;;
6985;SDS011;3533;51.246;6.850;2022-12-07T16:46:21;5.33;;;1.80;;
6985;SDS011;3533;51.246;6.850;2022-12-07T16:48:47;3.20;;;1.60;;
6985;SDS011;3533;51.246;6.850;2022-12-07T16:51:13;1.60;;;1.50;;
6985;SDS011;3533;51.246;6.850;2022-12-07T16:53:40;1.77;;;1.67;;
6985;SDS011;3533;51.246;6.850;2022-12-07T16:56:13;1.77;;;1.50;;
6985;SDS011;3533;51.246;6.850;2022-12-07T16:58:40;2.20;;;1.53;;
6985;SDS011;3533;51.246;6.850;2022-12-07T17:01:14;4.23;;;1.50;;
6985;SDS011;3533;51.246;6.850;2022-12-07T17:03:44;1.60;;;1.50;;
6985;SDS011;3533;51.246;6.850;2022-12-07T17:06:11;4.33;;;1.57;;
6985;SDS011;3533;51.246;6.850;2022-12-07T17:08:39;1.80;;;1.70;;
6985;SDS011;3533;51.246;6.850;2022-12-07T17:11:14;5.87;;;2.23;;
6985;SDS011;3533;51.246;6.850;2022-12-07T17:13:42;2.10;;;1.67;;
6985;SDS011;3533;51.246;6.850;2022-12-07T17:16:40;2.30;;;2.10;;